createdAt,value
2019-06-15T00:00:37.662Z,22.40
2019-06-15T00:03:40.858Z,22.40
2019-06-15T00:06:44.029Z,22.40
2019-06-15T00:09:47.114Z,22.50
2019-06-15T00:12:50.352Z,22.40
2019-06-15T00:15:53.509Z,22.40
2019-06-15T00:18:56.715Z,22.40
2019-06-15T00:21:59.931Z,22.40
2019-06-15T00:25:10.566Z,22.30
2019-06-15T00:28:13.792Z,22.30
2019-06-15T00:31:16.989Z,22.20
2019-06-15T00:34:20.055Z,22.20
2019-06-15T00:37:23.372Z,22.10
2019-06-15T00:40:26.587Z,22.10
2019-06-15T00:43:31.581Z,22.10
2019-06-15T00:46:34.926Z,22.10
2019-06-15T00:49:38.147Z,22.10
2019-06-15T00:52:41.270Z,22.10
2019-06-15T00:55:44.398Z,22.00
2019-06-15T00:58:47.531Z,22.00
2019-06-15T01:01:50.780Z,22.00
2019-06-15T01:04:53.951Z,21.90
2019-06-15T01:07:57.048Z,21.90
2019-06-15T01:11:00.167Z,21.90
2019-06-15T01:14:03.327Z,21.90
2019-06-15T01:17:06.564Z,21.90
2019-06-15T01:20:10.557Z,21.90
2019-06-15T01:23:13.843Z,21.90
2019-06-15T01:26:17.402Z,22.00
2019-06-15T01:29:20.634Z,21.90
2019-06-15T01:32:23.726Z,21.90
2019-06-15T01:35:27.027Z,21.90
2019-06-15T01:38:30.067Z,21.90
2019-06-15T01:41:33.230Z,22.00
2019-06-15T01:44:36.410Z,22.00
2019-06-15T01:47:39.584Z,21.90
2019-06-15T01:50:42.838Z,21.90
2019-06-15T01:53:47.736Z,21.80
2019-06-15T01:56:50.790Z,21.80
2019-06-15T01:59:53.890Z,21.80
2019-06-15T02:02:57.975Z,21.70
2019-06-15T02:06:01.095Z,21.70
2019-06-15T02:09:06.499Z,21.60
2019-06-15T02:12:09.709Z,21.70
2019-06-15T02:15:13.728Z,21.70
2019-06-15T02:18:16.920Z,21.70
2019-06-15T02:21:20.143Z,21.70
2019-06-15T02:24:24.337Z,21.80
2019-06-15T02:27:27.532Z,21.70
2019-06-15T02:30:31.947Z,21.80
2019-06-15T02:33:35.050Z,21.80
2019-06-15T02:36:38.140Z,21.80
2019-06-15T02:39:41.231Z,21.70
2019-06-15T02:42:44.337Z,21.70
2019-06-15T02:45:47.447Z,21.80
2019-06-15T02:48:50.510Z,21.80
2019-06-15T02:51:53.602Z,21.70
2019-06-15T02:54:56.795Z,21.70
2019-06-15T02:58:00.019Z,21.70
2019-06-15T03:01:06.070Z,21.60
2019-06-15T03:04:10.259Z,21.50
2019-06-15T03:07:13.605Z,21.40
2019-06-15T03:10:16.695Z,21.40
2019-06-15T03:13:19.793Z,21.30
2019-06-15T03:16:23.915Z,21.30
2019-06-15T03:19:27.073Z,21.30
2019-06-15T03:22:30.501Z,21.20
2019-06-15T03:25:33.572Z,21.30
2019-06-15T03:28:45.688Z,21.20
2019-06-15T03:31:50.731Z,21.20
2019-06-15T03:34:57.547Z,21.20
2019-06-15T03:38:00.814Z,21.10
2019-06-15T03:41:03.870Z,21.10
2019-06-15T03:44:07.009Z,21.00
2019-06-15T03:47:10.223Z,21.10
2019-06-15T03:50:14.558Z,21.00
2019-06-15T03:53:17.911Z,21.10
2019-06-15T03:56:22.283Z,21.10
2019-06-15T03:59:25.516Z,21.10
2019-06-15T04:02:28.747Z,21.10
2019-06-15T04:05:32.833Z,21.10
2019-06-15T04:08:36.041Z,21.10
2019-06-15T04:11:41.363Z,21.10
2019-06-15T04:14:44.452Z,21.10
2019-06-15T04:17:47.570Z,21.10
2019-06-15T04:20:50.641Z,21.10
2019-06-15T04:23:53.930Z,21.20
2019-06-15T04:26:57.162Z,21.30
2019-06-15T04:30:00.291Z,21.30
2019-06-15T04:33:03.463Z,21.40
2019-06-15T04:36:06.611Z,21.50
2019-06-15T04:39:09.758Z,21.60
2019-06-15T04:42:13.029Z,21.60
2019-06-15T04:45:16.192Z,21.70
2019-06-15T04:48:21.000Z,21.80
2019-06-15T04:51:24.103Z,21.90
2019-06-15T04:54:27.319Z,21.90
2019-06-15T04:57:30.445Z,22.00
2019-06-15T05:00:34.723Z,22.00
2019-06-15T05:03:37.867Z,22.00
2019-06-15T05:06:41.042Z,22.00
2019-06-15T05:09:44.143Z,22.10
2019-06-15T05:12:47.239Z,22.10
2019-06-15T05:15:50.399Z,22.20
2019-06-15T05:18:53.495Z,22.20
2019-06-15T05:21:56.374Z,22.30
2019-06-15T05:24:59.481Z,22.30
2019-06-15T05:28:02.805Z,22.40
2019-06-15T05:31:05.862Z,22.40
2019-06-15T05:34:09.059Z,22.50
2019-06-15T05:37:12.071Z,22.40
2019-06-15T05:40:15.153Z,22.40
2019-06-15T05:43:18.272Z,22.50
2019-06-15T05:46:21.860Z,22.60
2019-06-15T05:49:25.511Z,22.60
2019-06-15T05:52:28.843Z,22.70
2019-06-15T05:55:32.039Z,22.80
2019-06-15T05:58:35.135Z,22.90
2019-06-15T06:01:38.335Z,23.00
2019-06-15T06:04:41.523Z,23.10
2019-06-15T06:07:46.451Z,23.20
2019-06-15T06:10:49.555Z,23.30
2019-06-15T06:13:52.768Z,23.30
2019-06-15T06:16:55.942Z,23.20
2019-06-15T06:19:59.062Z,23.20
2019-06-15T06:23:02.370Z,23.10
2019-06-15T06:26:05.543Z,23.10
2019-06-15T06:29:08.634Z,23.10
2019-06-15T06:32:11.819Z,23.00
2019-06-15T06:35:15.057Z,23.10
2019-06-15T06:38:18.202Z,23.50
2019-06-15T06:41:21.414Z,24.00
2019-06-15T06:44:24.630Z,24.50
2019-06-15T06:47:28.853Z,24.50
2019-06-15T06:50:32.012Z,24.80
2019-06-15T06:53:35.104Z,25.00
2019-06-15T06:56:38.416Z,25.20
2019-06-15T06:59:41.624Z,25.30
2019-06-15T07:02:44.687Z,25.50
2019-06-15T07:05:47.826Z,25.60
2019-06-15T07:08:50.983Z,25.90
2019-06-15T07:11:54.167Z,26.10
2019-06-15T07:14:57.356Z,26.10
2019-06-15T07:18:00.561Z,26.20
2019-06-15T07:21:03.756Z,26.20
2019-06-15T07:24:06.990Z,26.70
2019-06-15T07:27:10.045Z,26.90
2019-06-15T07:30:15.663Z,27.20
2019-06-15T07:33:18.928Z,27.20
2019-06-15T07:36:22.097Z,27.20
2019-06-15T07:39:26.537Z,27.50
2019-06-15T07:42:29.603Z,27.90
2019-06-15T07:45:32.862Z,28.30
2019-06-15T07:48:35.926Z,28.20
2019-06-15T07:51:39.087Z,28.40
2019-06-15T07:54:42.198Z,28.50
2019-06-15T07:57:45.463Z,29.10
2019-06-15T08:00:48.653Z,29.60
2019-06-15T08:03:51.794Z,29.90
2019-06-15T08:06:54.946Z,30.00
2019-06-15T08:09:58.067Z,30.10
2019-06-15T08:13:01.140Z,29.80
2019-06-15T08:16:04.327Z,29.60
2019-06-15T08:19:07.643Z,29.80
2019-06-15T08:22:11.118Z,29.60
2019-06-15T08:25:14.579Z,29.60
2019-06-15T08:28:17.667Z,29.60
2019-06-15T08:31:21.002Z,30.40
2019-06-15T08:34:24.277Z,31.20
2019-06-15T08:37:27.229Z,31.20
2019-06-15T08:40:30.403Z,31.40
2019-06-15T08:43:33.798Z,31.40
2019-06-15T08:46:37.307Z,30.80
2019-06-15T08:49:40.531Z,31.20
2019-06-15T08:52:43.591Z,31.20
2019-06-15T08:55:46.833Z,31.30
2019-06-15T08:58:55.459Z,31.40
2019-06-15T09:01:56.140Z,31.30
2019-06-15T09:04:59.171Z,31.50
2019-06-15T09:08:02.431Z,31.90
2019-06-15T09:11:06.734Z,32.00
2019-06-15T09:14:09.875Z,31.90
2019-06-15T09:17:13.047Z,32.20
2019-06-15T09:20:16.243Z,32.70
2019-06-15T09:23:19.331Z,33.20
2019-06-15T09:26:22.424Z,33.70
2019-06-15T09:29:25.546Z,34.50
2019-06-15T09:32:28.734Z,34.10
2019-06-15T09:35:31.910Z,34.30
2019-06-15T09:38:35.013Z,35.30
2019-06-15T09:41:38.098Z,35.40
2019-06-15T09:44:41.430Z,36.00
2019-06-15T09:47:44.487Z,36.70
2019-06-15T09:50:47.580Z,37.00
2019-06-15T09:53:50.981Z,36.90
2019-06-15T09:56:54.275Z,36.30
2019-06-15T09:59:57.474Z,36.50
2019-06-15T10:03:00.568Z,36.10
2019-06-15T10:06:03.760Z,35.60
2019-06-15T10:09:07.210Z,34.80
2019-06-15T10:12:10.310Z,35.40
2019-06-15T10:15:14.808Z,36.70
2019-06-15T10:18:17.978Z,38.00
2019-06-15T10:21:21.186Z,38.60
2019-06-15T10:24:25.971Z,37.90
2019-06-15T10:27:29.004Z,37.60
2019-06-15T10:30:32.211Z,37.10
2019-06-15T10:33:35.282Z,36.60
2019-06-15T10:36:38.414Z,37.20
2019-06-15T10:39:41.606Z,36.80
2019-06-15T10:42:45.999Z,36.00
2019-06-15T10:45:49.220Z,35.70
2019-06-15T10:48:55.575Z,36.70
2019-06-15T10:51:57.439Z,36.80
2019-06-15T10:55:00.548Z,37.20
2019-06-15T10:58:03.819Z,38.30
2019-06-15T11:01:07.866Z,39.80
2019-06-15T11:04:10.923Z,39.80
2019-06-15T11:07:14.057Z,39.20
2019-06-15T11:10:24.582Z,39.00
2019-06-15T11:13:28.190Z,38.30
2019-06-15T11:16:31.526Z,36.10
2019-06-15T11:19:34.687Z,34.50
2019-06-15T11:22:37.874Z,34.00
2019-06-15T11:25:41.183Z,33.10
2019-06-15T11:28:44.295Z,32.70
2019-06-15T11:31:47.696Z,33.40
2019-06-15T11:34:50.771Z,33.70
2019-06-15T11:37:53.868Z,33.80
2019-06-15T11:40:56.994Z,33.10
2019-06-15T11:44:00.055Z,33.40
2019-06-15T11:47:03.158Z,33.80
2019-06-15T11:50:06.683Z,34.00
2019-06-15T11:53:09.955Z,34.00
2019-06-15T11:56:13.173Z,33.60
2019-06-15T11:59:16.436Z,33.20
2019-06-15T12:02:19.640Z,33.20
2019-06-15T12:05:22.897Z,33.00
2019-06-15T12:08:25.928Z,32.70
2019-06-15T12:11:29.264Z,32.50
2019-06-15T12:14:32.396Z,32.30
2019-06-15T12:17:35.616Z,32.10
2019-06-15T12:20:39.969Z,32.10
2019-06-15T12:23:43.135Z,32.00
2019-06-15T12:26:46.323Z,32.20
2019-06-15T12:29:51.155Z,32.70
2019-06-15T12:32:54.253Z,33.40
2019-06-15T12:35:57.375Z,34.30
2019-06-15T12:39:00.543Z,35.10
2019-06-15T12:42:03.735Z,36.10
2019-06-15T12:45:08.267Z,36.10
2019-06-15T12:48:11.557Z,36.20
2019-06-15T12:51:14.793Z,37.20
2019-06-15T12:54:17.984Z,38.10
2019-06-15T12:57:21.277Z,38.10
2019-06-15T13:00:30.295Z,38.10
2019-06-15T13:03:33.376Z,36.60
2019-06-15T13:06:36.476Z,35.40
2019-06-15T13:09:39.570Z,35.70
2019-06-15T13:12:42.775Z,36.20
2019-06-15T13:15:45.891Z,34.80
2019-06-15T13:18:49.378Z,34.60
2019-06-15T13:21:52.457Z,34.00
2019-06-15T13:24:55.438Z,34.40
2019-06-15T13:27:58.543Z,34.30
2019-06-15T13:31:17.318Z,34.50
2019-06-15T13:34:07.893Z,34.70
2019-06-15T13:37:11.091Z,35.70
2019-06-15T13:40:14.392Z,37.00
2019-06-15T13:43:17.606Z,37.90
2019-06-15T13:46:20.680Z,37.50
2019-06-15T13:49:23.771Z,39.60
2019-06-15T13:52:27.085Z,39.60
2019-06-15T13:55:30.259Z,39.40
2019-06-15T13:58:35.200Z,38.30
2019-06-15T14:01:37.985Z,37.90
2019-06-15T14:04:40.756Z,37.40
2019-06-15T14:07:43.578Z,37.50
2019-06-15T14:10:46.350Z,38.20
2019-06-15T14:13:50.237Z,39.20
2019-06-15T14:16:53.035Z,40.20
2019-06-15T14:19:55.885Z,39.60
2019-06-15T14:22:58.675Z,37.90
2019-06-15T14:26:01.440Z,37.40
2019-06-15T14:29:04.254Z,37.00
2019-06-15T14:32:07.044Z,36.80
2019-06-15T14:35:10.180Z,37.70
2019-06-15T14:38:12.963Z,36.90
2019-06-15T14:41:16.359Z,36.90
2019-06-15T14:44:19.147Z,37.30
2019-06-15T14:47:21.931Z,36.10
2019-06-15T14:50:24.710Z,36.90
2019-06-15T14:53:27.520Z,37.90
2019-06-15T14:56:30.339Z,37.60
2019-06-15T14:59:50.025Z,37.50
2019-06-15T15:02:38.952Z,36.10
2019-06-15T15:05:41.745Z,35.70
2019-06-15T15:08:46.874Z,35.10
2019-06-15T15:11:49.093Z,35.30
2019-06-15T15:14:51.875Z,35.80
2019-06-15T15:17:54.679Z,35.20
2019-06-15T15:20:57.543Z,35.70
2019-06-15T15:24:00.335Z,36.60
2019-06-15T15:27:03.120Z,36.10
2019-06-15T15:30:06.478Z,35.80
2019-06-15T15:33:09.462Z,34.50
2019-06-15T15:36:12.339Z,33.50
2019-06-15T15:39:16.663Z,33.30
2019-06-15T15:42:19.693Z,33.80
2019-06-15T15:45:22.483Z,33.60
2019-06-15T15:48:26.367Z,33.80
2019-06-15T15:51:29.167Z,33.70
2019-06-15T15:54:31.951Z,33.90
2019-06-15T15:57:36.341Z,33.50
2019-06-15T16:00:39.207Z,33.50
2019-06-15T16:03:41.965Z,33.30
2019-06-15T16:06:46.749Z,32.50
2019-06-15T16:09:49.422Z,31.30
2019-06-15T16:12:52.183Z,30.10
2019-06-15T16:15:54.961Z,29.80
2019-06-15T16:18:58.036Z,29.50
2019-06-15T16:22:02.899Z,29.50
2019-06-15T16:25:06.868Z,29.20
2019-06-15T16:28:09.868Z,28.40
2019-06-15T16:31:14.119Z,28.90
2019-06-15T16:34:18.241Z,29.20
2019-06-15T16:37:21.032Z,28.80
2019-06-15T16:40:30.675Z,28.20
2019-06-15T16:43:33.672Z,27.70
2019-06-15T16:46:37.007Z,27.70
2019-06-15T16:49:40.044Z,27.70
2019-06-15T16:52:42.896Z,27.60
2019-06-15T16:55:46.832Z,28.30
2019-06-15T16:58:49.887Z,28.50
2019-06-15T17:01:52.771Z,28.50
2019-06-15T17:04:56.984Z,28.00
2019-06-15T17:07:59.913Z,27.90
2019-06-15T17:11:02.671Z,28.10
2019-06-15T17:14:06.866Z,28.10
2019-06-15T17:17:09.917Z,28.40
2019-06-15T17:20:13.054Z,28.40
2019-06-15T17:23:16.344Z,28.00
2019-06-15T17:26:19.462Z,28.00
2019-06-15T17:29:22.347Z,28.10
2019-06-15T17:32:26.232Z,28.50
2019-06-15T17:35:30.211Z,28.60
2019-06-15T17:38:33.004Z,28.20
2019-06-15T17:41:36.655Z,27.90
2019-06-15T17:44:39.556Z,27.50
2019-06-15T17:47:42.347Z,26.90
2019-06-15T17:50:47.204Z,26.50
2019-06-15T17:53:49.743Z,26.30
2019-06-15T17:56:52.503Z,26.20
2019-06-15T17:59:55.319Z,25.90
2019-06-15T18:02:58.105Z,25.70
2019-06-15T18:06:00.855Z,25.60
2019-06-15T18:09:06.619Z,25.50
2019-06-15T18:12:10.688Z,25.60
2019-06-15T18:15:13.659Z,25.40
2019-06-15T18:18:16.944Z,25.30
2019-06-15T18:21:19.960Z,25.20
2019-06-15T18:24:22.799Z,25.10
2019-06-15T18:27:26.441Z,24.90
2019-06-15T18:30:29.444Z,24.80
2019-06-15T18:33:32.331Z,24.80
2019-06-15T18:36:36.564Z,24.80
2019-06-15T18:39:39.355Z,24.60
2019-06-15T18:42:42.145Z,24.40
2019-06-15T18:45:47.300Z,24.40
2019-06-15T18:48:51.113Z,24.10
2019-06-15T18:51:56.764Z,24.10
2019-06-15T18:55:02.928Z,24.00
2019-06-15T18:58:06.234Z,23.90
2019-06-15T19:01:09.492Z,23.90
2019-06-15T19:04:26.470Z,23.90
2019-06-15T19:07:17.939Z,23.80
2019-06-15T19:10:28.883Z,23.80
2019-06-15T19:13:32.031Z,23.70
2019-06-15T19:16:37.243Z,23.70
2019-06-15T19:19:40.247Z,23.60
2019-06-15T19:22:43.535Z,23.50
2019-06-15T19:25:47.209Z,23.50
2019-06-15T19:28:50.440Z,23.50
2019-06-15T19:31:54.342Z,23.40
2019-06-15T19:34:58.667Z,23.30
2019-06-15T19:38:02.002Z,23.20
2019-06-15T19:41:07.009Z,23.10
2019-06-15T19:44:10.203Z,23.00
2019-06-15T19:47:16.187Z,22.80
2019-06-15T19:50:18.644Z,22.80
2019-06-15T19:53:21.512Z,22.70
2019-06-15T19:56:26.060Z,22.60
2019-06-15T19:59:29.246Z,22.60
2019-06-15T20:02:32.243Z,22.50
2019-06-15T20:05:37.122Z,22.40
2019-06-15T20:08:39.780Z,22.30
2019-06-15T20:11:42.542Z,22.20
2019-06-15T20:14:46.305Z,22.10
2019-06-15T20:17:49.380Z,22.00
2019-06-15T20:20:52.237Z,21.80
2019-06-15T20:23:56.573Z,21.60
2019-06-15T20:26:59.477Z,21.50
2019-06-15T20:30:02.582Z,21.40
2019-06-15T20:33:07.821Z,21.30
2019-06-15T20:36:10.214Z,21.30
2019-06-15T20:39:13.073Z,21.30
2019-06-15T20:42:16.604Z,21.20
2019-06-15T20:45:19.793Z,21.10
2019-06-15T20:48:22.833Z,21.00
2019-06-15T20:51:25.724Z,21.00
2019-06-15T20:54:28.593Z,21.00
2019-06-15T20:57:31.551Z,21.00
2019-06-15T21:00:36.725Z,20.90
2019-06-15T21:03:43.007Z,20.90
2019-06-15T21:06:44.773Z,20.80
2019-06-15T21:09:48.167Z,20.80
2019-06-15T21:12:51.362Z,20.80
2019-06-15T21:15:56.637Z,20.80
2019-06-15T21:18:59.728Z,20.80
2019-06-15T21:22:02.799Z,20.80
2019-06-15T21:25:07.244Z,20.70
2019-06-15T21:28:10.412Z,20.60
2019-06-15T21:31:13.498Z,20.50
2019-06-15T21:34:16.727Z,20.40
2019-06-15T21:37:19.797Z,20.30
2019-06-15T21:40:22.918Z,20.20
2019-06-15T21:43:26.559Z,20.10
2019-06-15T21:46:29.791Z,20.20
2019-06-15T21:49:32.926Z,20.20
2019-06-15T21:52:36.485Z,20.20
2019-06-15T21:55:40.201Z,20.10
2019-06-15T21:58:43.692Z,20.10
2019-06-15T22:01:46.985Z,20.00
2019-06-15T22:04:50.427Z,20.10
2019-06-15T22:07:56.613Z,20.10
2019-06-15T22:10:58.459Z,20.00
2019-06-15T22:14:01.295Z,20.00
2019-06-15T22:17:06.556Z,19.90
2019-06-15T22:20:09.260Z,19.80
2019-06-15T22:23:12.197Z,19.70
2019-06-15T22:26:17.139Z,19.60
2019-06-15T22:29:19.645Z,19.50
2019-06-15T22:32:23.953Z,19.50
2019-06-15T22:35:27.151Z,19.50
2019-06-15T22:43:06.993Z,19.30
2019-06-15T22:46:10.022Z,19.30
2019-06-15T22:49:16.145Z,19.20
2019-06-15T22:52:18.975Z,19.20
2019-06-15T22:55:22.589Z,19.10
2019-06-15T22:58:27.071Z,19.00
2019-06-15T23:01:30.515Z,19.00
2019-06-15T23:04:33.603Z,18.90
2019-06-15T23:07:36.799Z,18.80
2019-06-15T23:10:39.964Z,18.70
2019-06-15T23:13:43.003Z,18.80
2019-06-15T23:16:47.462Z,18.70
2019-06-15T23:19:51.023Z,18.70
2019-06-15T23:22:56.160Z,18.60
2019-06-15T23:26:00.068Z,18.40
2019-06-15T23:29:06.946Z,18.30
2019-06-15T23:32:10.005Z,18.30
2019-06-15T23:35:13.311Z,18.20
2019-06-15T23:38:16.524Z,18.10
2019-06-15T23:41:19.733Z,18.10
2019-06-15T23:44:23.019Z,18.10
2019-06-15T23:47:27.343Z,18.10
2019-06-15T23:50:30.640Z,18.10
2019-06-15T23:53:36.792Z,18.10
2019-06-15T23:56:39.999Z,18.00
2019-06-15T23:59:43.153Z,18.00
